sensor_id;sensor_type;location;lat;lon;timestamp;P1;durP1;ratioP1;P2;durP2;ratioP2
26319;SDS011;14024;52.226;5.200;2022-12-29T00:01:17;9.27;;;5.22;;
26319;SDS011;14024;52.226;5.200;2022-12-29T00:03:46;8.07;;;4.65;;
26319;SDS011;14024;52.226;5.200;2022-12-29T00:06:12;7.43;;;5.13;;
26319;SDS011;14024;52.226;5.200;2022-12-29T00:08:38;8.95;;;5.20;;
26319;SDS011;14024;52.226;5.200;2022-12-29T00:11:08;9.88;;;5.00;;
26319;SDS011;14024;52.226;5.200;2022-12-29T00:13:34;6.35;;;4.90;;
26319;SDS011;14024;52.226;5.200;2022-12-29T00:16:18;9.07;;;4.80;;
26319;SDS011;14024;52.226;5.200;2022-12-29T00:18:44;8.05;;;4.43;;
26319;SDS011;14024;52.226;5.200;2022-12-29T00:21:14;7.20;;;4.40;;
26319;SDS011;14024;52.226;5.200;2022-12-29T00:24:00;5.55;;;4.10;;
26319;SDS011;14024;52.226;5.200;2022-12-29T00:26:45;8.15;;;3.97;;
26319;SDS011;14024;52.226;5.200;2022-12-29T00:29:29;5.97;;;4.18;;
26319;SDS011;14024;52.226;5.200;2022-12-29T00:32:14;7.05;;;3.40;;
26319;SDS011;14024;52.226;5.200;2022-12-29T00:34:58;4.47;;;3.60;;
26319;SDS011;14024;52.226;5.200;2022-12-29T00:37:44;6.22;;;3.50;;
26319;SDS011;14024;52.226;5.200;2022-12-29T00:40:30;7.15;;;3.40;;
26319;SDS011;14024;52.226;5.200;2022-12-29T00:43:15;5.55;;;3.40;;
26319;SDS011;14024;52.226;5.200;2022-12-29T00:45:59;4.90;;;3.47;;
26319;SDS011;14024;52.226;5.200;2022-12-29T00:48:25;4.78;;;3.25;;
26319;SDS011;14024;52.226;5.200;2022-12-29T00:51:09;7.25;;;4.55;;
26319;SDS011;14024;52.226;5.200;2022-12-29T00:53:35;6.32;;;3.72;;
26319;SDS011;14024;52.226;5.200;2022-12-29T00:56:01;4.40;;;3.03;;
26319;SDS011;14024;52.226;5.200;2022-12-29T00:58:28;5.03;;;3.78;;
26319;SDS011;14024;52.226;5.200;2022-12-29T01:01:01;6.85;;;3.33;;
26319;SDS011;14024;52.226;5.200;2022-12-29T01:03:27;4.85;;;3.20;;
26319;SDS011;14024;52.226;5.200;2022-12-29T01:05:53;6.15;;;3.33;;
26319;SDS011;14024;52.226;5.200;2022-12-29T01:08:19;4.60;;;2.95;;
26319;SDS011;14024;52.226;5.200;2022-12-29T01:10:44;5.93;;;3.28;;
26319;SDS011;14024;52.226;5.200;2022-12-29T01:13:10;5.60;;;3.20;;
26319;SDS011;14024;52.226;5.200;2022-12-29T01:15:36;7.57;;;3.10;;
26319;SDS011;14024;52.226;5.200;2022-12-29T01:18:02;5.22;;;3.25;;
26319;SDS011;14024;52.226;5.200;2022-12-29T01:20:28;8.05;;;3.70;;
26319;SDS011;14024;52.226;5.200;2022-12-29T01:22:54;6.72;;;3.63;;
26319;SDS011;14024;52.226;5.200;2022-12-29T01:25:20;6.47;;;3.50;;
26319;SDS011;14024;52.226;5.200;2022-12-29T01:27:46;5.28;;;3.15;;
26319;SDS011;14024;52.226;5.200;2022-12-29T01:30:12;8.20;;;3.22;;
26319;SDS011;14024;52.226;5.200;2022-12-29T01:32:38;4.55;;;3.30;;
26319;SDS011;14024;52.226;5.200;2022-12-29T01:35:04;5.70;;;3.58;;
26319;SDS011;14024;52.226;5.200;2022-12-29T01:37:30;7.90;;;3.40;;
26319;SDS011;14024;52.226;5.200;2022-12-29T01:39:56;4.63;;;3.28;;
26319;SDS011;14024;52.226;5.200;2022-12-29T01:42:23;4.50;;;3.38;;
26319;SDS011;14024;52.226;5.200;2022-12-29T01:44:52;5.38;;;3.72;;
26319;SDS011;14024;52.226;5.200;2022-12-29T01:47:25;5.38;;;3.53;;
26319;SDS011;14024;52.226;5.200;2022-12-29T01:52:17;7.72;;;3.63;;
26319;SDS011;14024;52.226;5.200;2022-12-29T01:54:45;5.60;;;3.45;;
26319;SDS011;14024;52.226;5.200;2022-12-29T01:57:14;8.00;;;4.18;;
26319;SDS011;14024;52.226;5.200;2022-12-29T01:59:56;6.07;;;3.55;;
26319;SDS011;14024;52.226;5.200;2022-12-29T02:02:24;9.25;;;4.72;;
26319;SDS011;14024;52.226;5.200;2022-12-29T02:04:50;4.40;;;3.60;;
26319;SDS011;14024;52.226;5.200;2022-12-29T02:07:18;6.63;;;3.63;;
26319;SDS011;14024;52.226;5.200;2022-12-29T02:09:46;5.60;;;3.42;;
26319;SDS011;14024;52.226;5.200;2022-12-29T02:12:13;4.95;;;3.17;;
26319;SDS011;14024;52.226;5.200;2022-12-29T02:14:39;4.72;;;3.42;;
26319;SDS011;14024;52.226;5.200;2022-12-29T02:24:38;4.82;;;3.55;;
26319;SDS011;14024;52.226;5.200;2022-12-29T02:35:20;7.60;;;3.13;;
26319;SDS011;14024;52.226;5.200;2022-12-29T02:40:14;7.55;;;2.88;;
26319;SDS011;14024;52.226;5.200;2022-12-29T02:42:47;6.78;;;2.85;;
26319;SDS011;14024;52.226;5.200;2022-12-29T02:45:18;3.88;;;2.42;;
26319;SDS011;14024;52.226;5.200;2022-12-29T02:48:08;6.05;;;2.28;;
26319;SDS011;14024;52.226;5.200;2022-12-29T02:50:39;5.57;;;2.60;;
26319;SDS011;14024;52.226;5.200;2022-12-29T02:53:14;6.50;;;2.40;;
26319;SDS011;14024;52.226;5.200;2022-12-29T02:55:48;10.82;;;3.05;;
26319;SDS011;14024;52.226;5.200;2022-12-29T02:58:21;4.38;;;2.15;;
26319;SDS011;14024;52.226;5.200;2022-12-29T03:00:52;6.25;;;2.13;;
26319;SDS011;14024;52.226;5.200;2022-12-29T03:03:29;6.50;;;1.80;;
26319;SDS011;14024;52.226;5.200;2022-12-29T03:08:51;6.32;;;2.05;;
26319;SDS011;14024;52.226;5.200;2022-12-29T03:11:21;5.65;;;2.05;;
26319;SDS011;14024;52.226;5.200;2022-12-29T03:14:14;7.90;;;1.60;;
26319;SDS011;14024;52.226;5.200;2022-12-29T03:17:01;10.40;;;2.45;;
26319;SDS011;14024;52.226;5.200;2022-12-29T03:19:33;6.90;;;1.90;;
26319;SDS011;14024;52.226;5.200;2022-12-29T03:22:01;10.93;;;1.77;;
26319;SDS011;14024;52.226;5.200;2022-12-29T03:24:47;7.78;;;1.92;;
26319;SDS011;14024;52.226;5.200;2022-12-29T03:27:16;7.10;;;1.80;;
26319;SDS011;14024;52.226;5.200;2022-12-29T03:29:45;7.55;;;2.30;;
26319;SDS011;14024;52.226;5.200;2022-12-29T03:32:12;5.70;;;1.77;;
26319;SDS011;14024;52.226;5.200;2022-12-29T03:34:38;13.10;;;2.13;;
26319;SDS011;14024;52.226;5.200;2022-12-29T03:37:07;16.38;;;2.55;;
26319;SDS011;14024;52.226;5.200;2022-12-29T03:39:35;10.68;;;1.63;;
26319;SDS011;14024;52.226;5.200;2022-12-29T03:42:02;5.88;;;1.70;;
26319;SDS011;14024;52.226;5.200;2022-12-29T03:44:33;6.45;;;1.60;;
26319;SDS011;14024;52.226;5.200;2022-12-29T03:47:01;6.40;;;1.80;;
26319;SDS011;14024;52.226;5.200;2022-12-29T03:49:27;6.60;;;1.45;;
26319;SDS011;14024;52.226;5.200;2022-12-29T03:51:53;7.10;;;2.00;;
26319;SDS011;14024;52.226;5.200;2022-12-29T03:54:19;6.75;;;1.50;;
26319;SDS011;14024;52.226;5.200;2022-12-29T03:56:45;16.85;;;2.28;;
26319;SDS011;14024;52.226;5.200;2022-12-29T03:59:11;11.15;;;1.90;;
26319;SDS011;14024;52.226;5.200;2022-12-29T04:01:37;11.63;;;2.90;;
26319;SDS011;14024;52.226;5.200;2022-12-29T04:04:03;4.43;;;1.40;;
26319;SDS011;14024;52.226;5.200;2022-12-29T04:06:29;7.57;;;1.60;;
26319;SDS011;14024;52.226;5.200;2022-12-29T04:08:55;7.85;;;2.10;;
26319;SDS011;14024;52.226;5.200;2022-12-29T04:11:21;9.73;;;1.77;;
26319;SDS011;14024;52.226;5.200;2022-12-29T04:13:47;8.02;;;1.80;;
26319;SDS011;14024;52.226;5.200;2022-12-29T04:16:13;6.47;;;2.53;;
26319;SDS011;14024;52.226;5.200;2022-12-29T04:18:39;9.27;;;1.75;;
26319;SDS011;14024;52.226;5.200;2022-12-29T04:21:05;6.57;;;1.70;;
26319;SDS011;14024;52.226;5.200;2022-12-29T04:23:33;10.30;;;1.80;;
26319;SDS011;14024;52.226;5.200;2022-12-29T04:25:59;9.55;;;1.85;;
26319;SDS011;14024;52.226;5.200;2022-12-29T04:28:25;6.20;;;2.15;;
26319;SDS011;14024;52.226;5.200;2022-12-29T04:30:52;8.90;;;1.77;;
26319;SDS011;14024;52.226;5.200;2022-12-29T04:33:18;3.10;;;1.58;;
26319;SDS011;14024;52.226;5.200;2022-12-29T04:35:44;9.63;;;1.90;;
26319;SDS011;14024;52.226;5.200;2022-12-29T04:38:10;6.95;;;2.33;;
26319;SDS011;14024;52.226;5.200;2022-12-29T04:40:37;7.60;;;1.70;;
26319;SDS011;14024;52.226;5.200;2022-12-29T04:43:04;11.45;;;2.03;;
26319;SDS011;14024;52.226;5.200;2022-12-29T04:45:30;8.43;;;2.13;;
26319;SDS011;14024;52.226;5.200;2022-12-29T04:47:56;11.32;;;2.75;;
26319;SDS011;14024;52.226;5.200;2022-12-29T04:50:22;12.13;;;2.80;;
26319;SDS011;14024;52.226;5.200;2022-12-29T04:52:48;8.40;;;1.95;;
26319;SDS011;14024;52.226;5.200;2022-12-29T04:55:14;10.02;;;2.00;;
26319;SDS011;14024;52.226;5.200;2022-12-29T04:57:40;10.75;;;2.13;;
26319;SDS011;14024;52.226;5.200;2022-12-29T05:00:06;12.75;;;2.28;;
26319;SDS011;14024;52.226;5.200;2022-12-29T05:02:34;4.75;;;1.75;;
26319;SDS011;14024;52.226;5.200;2022-12-29T05:05:00;8.68;;;1.73;;
26319;SDS011;14024;52.226;5.200;2022-12-29T05:07:26;9.93;;;2.03;;
26319;SDS011;14024;52.226;5.200;2022-12-29T05:09:52;8.57;;;2.20;;
26319;SDS011;14024;52.226;5.200;2022-12-29T05:12:18;13.35;;;2.65;;
26319;SDS011;14024;52.226;5.200;2022-12-29T05:14:44;6.90;;;1.80;;
26319;SDS011;14024;52.226;5.200;2022-12-29T05:17:10;7.55;;;2.17;;
26319;SDS011;14024;52.226;5.200;2022-12-29T05:19:36;12.20;;;2.13;;
26319;SDS011;14024;52.226;5.200;2022-12-29T05:22:03;8.50;;;2.10;;
26319;SDS011;14024;52.226;5.200;2022-12-29T05:24:29;12.40;;;2.22;;
26319;SDS011;14024;52.226;5.200;2022-12-29T05:26:55;13.68;;;3.10;;
26319;SDS011;14024;52.226;5.200;2022-12-29T05:29:21;19.33;;;3.08;;
26319;SDS011;14024;52.226;5.200;2022-12-29T05:31:47;19.02;;;3.28;;
26319;SDS011;14024;52.226;5.200;2022-12-29T05:34:13;23.13;;;4.47;;
26319;SDS011;14024;52.226;5.200;2022-12-29T05:36:39;17.20;;;2.47;;
26319;SDS011;14024;52.226;5.200;2022-12-29T05:39:05;13.55;;;4.10;;
26319;SDS011;14024;52.226;5.200;2022-12-29T05:41:32;10.20;;;2.83;;
26319;SDS011;14024;52.226;5.200;2022-12-29T05:43:59;17.13;;;2.63;;
26319;SDS011;14024;52.226;5.200;2022-12-29T05:46:25;14.95;;;3.92;;
26319;SDS011;14024;52.226;5.200;2022-12-29T05:48:51;22.23;;;4.65;;
26319;SDS011;14024;52.226;5.200;2022-12-29T05:51:17;12.35;;;2.25;;
26319;SDS011;14024;52.226;5.200;2022-12-29T05:53:43;18.35;;;2.90;;
26319;SDS011;14024;52.226;5.200;2022-12-29T05:56:09;15.80;;;2.95;;
26319;SDS011;14024;52.226;5.200;2022-12-29T05:58:35;15.20;;;2.60;;
26319;SDS011;14024;52.226;5.200;2022-12-29T06:01:01;19.48;;;3.35;;
26319;SDS011;14024;52.226;5.200;2022-12-29T06:03:27;10.65;;;2.47;;
26319;SDS011;14024;52.226;5.200;2022-12-29T06:05:53;14.10;;;2.50;;
26319;SDS011;14024;52.226;5.200;2022-12-29T06:08:19;8.82;;;2.33;;
26319;SDS011;14024;52.226;5.200;2022-12-29T06:10:45;15.15;;;2.85;;
26319;SDS011;14024;52.226;5.200;2022-12-29T06:13:11;15.43;;;2.75;;
26319;SDS011;14024;52.226;5.200;2022-12-29T06:15:37;28.73;;;2.97;;
26319;SDS011;14024;52.226;5.200;2022-12-29T06:18:03;16.92;;;2.58;;
26319;SDS011;14024;52.226;5.200;2022-12-29T06:20:29;23.42;;;5.63;;
26319;SDS011;14024;52.226;5.200;2022-12-29T06:22:55;11.35;;;2.55;;
26319;SDS011;14024;52.226;5.200;2022-12-29T06:25:21;9.32;;;2.22;;
26319;SDS011;14024;52.226;5.200;2022-12-29T06:27:47;18.90;;;3.17;;
26319;SDS011;14024;52.226;5.200;2022-12-29T06:30:13;16.88;;;2.75;;
26319;SDS011;14024;52.226;5.200;2022-12-29T06:32:39;17.48;;;2.70;;
26319;SDS011;14024;52.226;5.200;2022-12-29T06:35:06;11.80;;;2.20;;
26319;SDS011;14024;52.226;5.200;2022-12-29T06:37:32;17.80;;;2.78;;
26319;SDS011;14024;52.226;5.200;2022-12-29T06:39:58;17.92;;;3.55;;
26319;SDS011;14024;52.226;5.200;2022-12-29T06:42:24;12.15;;;2.60;;
26319;SDS011;14024;52.226;5.200;2022-12-29T06:44:50;14.77;;;3.17;;
26319;SDS011;14024;52.226;5.200;2022-12-29T06:47:17;20.38;;;3.20;;
26319;SDS011;14024;52.226;5.200;2022-12-29T06:49:43;16.33;;;3.78;;
26319;SDS011;14024;52.226;5.200;2022-12-29T06:52:09;30.15;;;3.35;;
26319;SDS011;14024;52.226;5.200;2022-12-29T06:54:35;14.48;;;3.47;;
26319;SDS011;14024;52.226;5.200;2022-12-29T06:57:01;12.77;;;2.55;;
26319;SDS011;14024;52.226;5.200;2022-12-29T06:59:27;18.00;;;2.55;;
26319;SDS011;14024;52.226;5.200;2022-12-29T07:01:53;14.27;;;2.67;;
26319;SDS011;14024;52.226;5.200;2022-12-29T07:04:19;14.55;;;2.83;;
26319;SDS011;14024;52.226;5.200;2022-12-29T07:06:45;13.55;;;2.30;;
26319;SDS011;14024;52.226;5.200;2022-12-29T07:09:11;14.43;;;3.58;;
26319;SDS011;14024;52.226;5.200;2022-12-29T07:11:37;15.73;;;3.35;;
26319;SDS011;14024;52.226;5.200;2022-12-29T07:14:03;20.45;;;3.58;;
26319;SDS011;14024;52.226;5.200;2022-12-29T07:16:29;18.45;;;2.60;;
26319;SDS011;14024;52.226;5.200;2022-12-29T07:18:55;15.63;;;3.25;;
26319;SDS011;14024;52.226;5.200;2022-12-29T07:21:23;10.48;;;2.50;;
26319;SDS011;14024;52.226;5.200;2022-12-29T07:23:50;22.20;;;3.47;;
26319;SDS011;14024;52.226;5.200;2022-12-29T07:26:15;13.45;;;3.85;;
26319;SDS011;14024;52.226;5.200;2022-12-29T07:28:43;13.52;;;2.40;;
26319;SDS011;14024;52.226;5.200;2022-12-29T07:31:16;12.80;;;3.15;;
26319;SDS011;14024;52.226;5.200;2022-12-29T07:33:43;10.20;;;2.00;;
26319;SDS011;14024;52.226;5.200;2022-12-29T07:36:09;7.35;;;1.80;;
26319;SDS011;14024;52.226;5.200;2022-12-29T07:38:35;12.13;;;2.00;;
26319;SDS011;14024;52.226;5.200;2022-12-29T07:41:01;15.85;;;2.20;;
26319;SDS011;14024;52.226;5.200;2022-12-29T07:43:27;12.18;;;2.40;;
26319;SDS011;14024;52.226;5.200;2022-12-29T07:45:53;18.58;;;3.35;;
26319;SDS011;14024;52.226;5.200;2022-12-29T07:48:19;10.20;;;1.90;;
26319;SDS011;14024;52.226;5.200;2022-12-29T07:50:45;15.80;;;2.60;;
26319;SDS011;14024;52.226;5.200;2022-12-29T07:53:11;15.68;;;2.95;;
26319;SDS011;14024;52.226;5.200;2022-12-29T07:55:37;9.75;;;2.75;;
26319;SDS011;14024;52.226;5.200;2022-12-29T07:58:03;13.90;;;3.08;;
26319;SDS011;14024;52.226;5.200;2022-12-29T08:00:29;11.90;;;2.83;;
26319;SDS011;14024;52.226;5.200;2022-12-29T08:02:55;15.68;;;3.55;;
26319;SDS011;14024;52.226;5.200;2022-12-29T08:05:21;19.33;;;2.63;;
26319;SDS011;14024;52.226;5.200;2022-12-29T08:07:47;20.80;;;3.05;;
26319;SDS011;14024;52.226;5.200;2022-12-29T08:10:14;13.25;;;2.75;;
26319;SDS011;14024;52.226;5.200;2022-12-29T08:12:40;24.10;;;3.05;;
26319;SDS011;14024;52.226;5.200;2022-12-29T08:15:07;20.13;;;3.20;;
26319;SDS011;14024;52.226;5.200;2022-12-29T08:17:33;16.40;;;3.05;;
26319;SDS011;14024;52.226;5.200;2022-12-29T08:19:59;17.67;;;3.17;;
26319;SDS011;14024;52.226;5.200;2022-12-29T08:22:25;20.75;;;3.80;;
26319;SDS011;14024;52.226;5.200;2022-12-29T08:24:51;21.27;;;3.78;;
26319;SDS011;14024;52.226;5.200;2022-12-29T08:27:17;17.25;;;2.70;;
26319;SDS011;14024;52.226;5.200;2022-12-29T08:29:43;17.00;;;3.22;;
26319;SDS011;14024;52.226;5.200;2022-12-29T08:32:09;16.13;;;3.08;;
26319;SDS011;14024;52.226;5.200;2022-12-29T08:34:35;20.17;;;3.83;;
26319;SDS011;14024;52.226;5.200;2022-12-29T08:37:01;17.33;;;3.97;;
26319;SDS011;14024;52.226;5.200;2022-12-29T08:39:28;11.43;;;3.45;;
26319;SDS011;14024;52.226;5.200;2022-12-29T08:41:54;17.48;;;3.20;;
26319;SDS011;14024;52.226;5.200;2022-12-29T08:44:20;17.13;;;2.33;;
26319;SDS011;14024;52.226;5.200;2022-12-29T08:46:46;20.00;;;3.33;;
26319;SDS011;14024;52.226;5.200;2022-12-29T08:49:12;19.67;;;2.55;;
26319;SDS011;14024;52.226;5.200;2022-12-29T08:51:38;14.77;;;2.35;;
26319;SDS011;14024;52.226;5.200;2022-12-29T08:54:04;27.02;;;3.08;;
26319;SDS011;14024;52.226;5.200;2022-12-29T08:56:31;16.85;;;3.08;;
26319;SDS011;14024;52.226;5.200;2022-12-29T08:58:57;22.75;;;3.00;;
26319;SDS011;14024;52.226;5.200;2022-12-29T09:01:23;20.25;;;3.45;;
26319;SDS011;14024;52.226;5.200;2022-12-29T09:03:49;20.25;;;3.05;;
26319;SDS011;14024;52.226;5.200;2022-12-29T09:06:16;15.10;;;2.95;;
26319;SDS011;14024;52.226;5.200;2022-12-29T09:08:42;22.13;;;4.10;;
26319;SDS011;14024;52.226;5.200;2022-12-29T09:11:09;19.35;;;3.45;;
26319;SDS011;14024;52.226;5.200;2022-12-29T09:13:36;12.82;;;2.90;;
26319;SDS011;14024;52.226;5.200;2022-12-29T09:16:02;18.52;;;2.92;;
26319;SDS011;14024;52.226;5.200;2022-12-29T09:18:29;13.35;;;3.35;;
26319;SDS011;14024;52.226;5.200;2022-12-29T09:20:55;20.50;;;3.90;;
26319;SDS011;14024;52.226;5.200;2022-12-29T09:23:22;23.35;;;4.75;;
26319;SDS011;14024;52.226;5.200;2022-12-29T09:25:48;21.15;;;3.97;;
26319;SDS011;14024;52.226;5.200;2022-12-29T09:28:14;17.98;;;3.17;;
26319;SDS011;14024;52.226;5.200;2022-12-29T09:30:41;16.45;;;3.47;;
26319;SDS011;14024;52.226;5.200;2022-12-29T09:33:07;17.13;;;2.90;;
26319;SDS011;14024;52.226;5.200;2022-12-29T09:35:33;9.60;;;2.60;;
26319;SDS011;14024;52.226;5.200;2022-12-29T09:37:59;13.73;;;3.00;;
26319;SDS011;14024;52.226;5.200;2022-12-29T09:40:31;13.93;;;3.88;;
26319;SDS011;14024;52.226;5.200;2022-12-29T09:46:05;12.88;;;3.60;;
26319;SDS011;14024;52.226;5.200;2022-12-29T09:48:36;16.13;;;3.03;;
26319;SDS011;14024;52.226;5.200;2022-12-29T09:51:05;18.00;;;3.40;;
26319;SDS011;14024;52.226;5.200;2022-12-29T09:53:49;16.70;;;3.17;;
26319;SDS011;14024;52.226;5.200;2022-12-29T09:56:18;10.97;;;2.57;;
26319;SDS011;14024;52.226;5.200;2022-12-29T09:58:50;15.77;;;3.35;;
26319;SDS011;14024;52.226;5.200;2022-12-29T10:03:51;14.10;;;3.10;;
26319;SDS011;14024;52.226;5.200;2022-12-29T10:14:08;18.40;;;3.40;;
26319;SDS011;14024;52.226;5.200;2022-12-29T10:19:22;17.23;;;3.75;;
26319;SDS011;14024;52.226;5.200;2022-12-29T10:24:20;19.15;;;3.95;;
26319;SDS011;14024;52.226;5.200;2022-12-29T10:26:47;14.05;;;3.45;;
26319;SDS011;14024;52.226;5.200;2022-12-29T10:31:41;14.50;;;3.28;;
26319;SDS011;14024;52.226;5.200;2022-12-29T10:34:17;12.10;;;3.40;;
26319;SDS011;14024;52.226;5.200;2022-12-29T10:36:46;22.63;;;4.18;;
26319;SDS011;14024;52.226;5.200;2022-12-29T10:44:15;19.52;;;3.45;;
26319;SDS011;14024;52.226;5.200;2022-12-29T10:46:42;17.15;;;4.20;;
26319;SDS011;14024;52.226;5.200;2022-12-29T10:49:14;29.27;;;3.83;;
26319;SDS011;14024;52.226;5.200;2022-12-29T10:51:41;22.27;;;4.57;;
26319;SDS011;14024;52.226;5.200;2022-12-29T10:59:06;40.60;;;7.55;;
26319;SDS011;14024;52.226;5.200;2022-12-29T11:01:37;22.20;;;4.72;;
26319;SDS011;14024;52.226;5.200;2022-12-29T11:04:16;14.98;;;4.93;;
26319;SDS011;14024;52.226;5.200;2022-12-29T11:06:47;23.27;;;5.10;;
26319;SDS011;14024;52.226;5.200;2022-12-29T11:09:19;35.97;;;5.28;;
26319;SDS011;14024;52.226;5.200;2022-12-29T11:11:48;21.20;;;4.78;;
26319;SDS011;14024;52.226;5.200;2022-12-29T11:14:18;31.02;;;4.75;;
26319;SDS011;14024;52.226;5.200;2022-12-29T11:16:44;31.73;;;5.60;;
26319;SDS011;14024;52.226;5.200;2022-12-29T11:19:24;39.08;;;6.50;;
26319;SDS011;14024;52.226;5.200;2022-12-29T11:21:51;24.83;;;5.07;;
26319;SDS011;14024;52.226;5.200;2022-12-29T11:24:24;33.17;;;7.25;;
26319;SDS011;14024;52.226;5.200;2022-12-29T11:29:22;28.20;;;5.38;;
26319;SDS011;14024;52.226;5.200;2022-12-29T11:31:52;26.83;;;5.03;;
26319;SDS011;14024;52.226;5.200;2022-12-29T11:34:33;25.55;;;5.15;;
26319;SDS011;14024;52.226;5.200;2022-12-29T11:37:00;34.50;;;6.00;;
26319;SDS011;14024;52.226;5.200;2022-12-29T11:39:36;22.30;;;5.32;;
26319;SDS011;14024;52.226;5.200;2022-12-29T11:42:03;36.42;;;5.97;;
26319;SDS011;14024;52.226;5.200;2022-12-29T11:44:31;22.63;;;4.35;;
26319;SDS011;14024;52.226;5.200;2022-12-29T11:46:59;28.13;;;5.63;;
26319;SDS011;14024;52.226;5.200;2022-12-29T11:49:25;30.23;;;5.40;;
26319;SDS011;14024;52.226;5.200;2022-12-29T11:51:52;30.80;;;7.40;;
26319;SDS011;14024;52.226;5.200;2022-12-29T11:54:26;36.13;;;6.38;;
26319;SDS011;14024;52.226;5.200;2022-12-29T11:56:53;21.17;;;3.78;;
26319;SDS011;14024;52.226;5.200;2022-12-29T12:01:55;28.40;;;6.15;;
26319;SDS011;14024;52.226;5.200;2022-12-29T12:04:22;17.73;;;4.40;;
26319;SDS011;14024;52.226;5.200;2022-12-29T12:06:57;29.20;;;4.75;;
26319;SDS011;14024;52.226;5.200;2022-12-29T12:09:35;22.23;;;4.53;;
26319;SDS011;14024;52.226;5.200;2022-12-29T12:12:03;19.30;;;4.18;;
26319;SDS011;14024;52.226;5.200;2022-12-29T12:17:05;20.80;;;4.63;;
26319;SDS011;14024;52.226;5.200;2022-12-29T12:19:39;32.10;;;4.20;;
26319;SDS011;14024;52.226;5.200;2022-12-29T12:24:46;24.52;;;4.80;;
26319;SDS011;14024;52.226;5.200;2022-12-29T12:27:26;30.50;;;4.55;;
26319;SDS011;14024;52.226;5.200;2022-12-29T12:32:23;25.50;;;4.55;;
26319;SDS011;14024;52.226;5.200;2022-12-29T12:34:50;18.63;;;4.55;;
26319;SDS011;14024;52.226;5.200;2022-12-29T12:37:27;28.40;;;4.00;;
26319;SDS011;14024;52.226;5.200;2022-12-29T12:47:50;26.50;;;4.75;;
26319;SDS011;14024;52.226;5.200;2022-12-29T12:53:08;13.90;;;4.13;;
26319;SDS011;14024;52.226;5.200;2022-12-29T12:55:59;17.13;;;3.00;;
26319;SDS011;14024;52.226;5.200;2022-12-29T12:58:42;13.68;;;2.92;;
26319;SDS011;14024;52.226;5.200;2022-12-29T13:08:58;27.30;;;4.93;;
26319;SDS011;14024;52.226;5.200;2022-12-29T13:11:38;17.75;;;4.20;;
26319;SDS011;14024;52.226;5.200;2022-12-29T13:19:20;18.17;;;3.20;;
26319;SDS011;14024;52.226;5.200;2022-12-29T13:22:13;14.77;;;3.00;;
26319;SDS011;14024;52.226;5.200;2022-12-29T13:24:40;23.05;;;4.50;;
26319;SDS011;14024;52.226;5.200;2022-12-29T13:30:00;17.13;;;4.05;;
26319;SDS011;14024;52.226;5.200;2022-12-29T13:38:01;18.13;;;2.85;;
26319;SDS011;14024;52.226;5.200;2022-12-29T13:40:31;13.57;;;3.55;;
26319;SDS011;14024;52.226;5.200;2022-12-29T13:42:59;19.75;;;3.28;;
26319;SDS011;14024;52.226;5.200;2022-12-29T13:45:26;25.10;;;2.90;;
26319;SDS011;14024;52.226;5.200;2022-12-29T13:47:56;20.35;;;3.95;;
26319;SDS011;14024;52.226;5.200;2022-12-29T13:50:25;17.17;;;3.58;;
26319;SDS011;14024;52.226;5.200;2022-12-29T13:52:55;19.80;;;4.28;;
26319;SDS011;14024;52.226;5.200;2022-12-29T13:55:32;19.83;;;4.50;;
26319;SDS011;14024;52.226;5.200;2022-12-29T14:00:52;16.02;;;3.47;;
26319;SDS011;14024;52.226;5.200;2022-12-29T14:05:45;16.52;;;3.13;;
26319;SDS011;14024;52.226;5.200;2022-12-29T14:08:27;19.88;;;3.53;;
26319;SDS011;14024;52.226;5.200;2022-12-29T14:10:53;16.45;;;3.53;;
26319;SDS011;14024;52.226;5.200;2022-12-29T14:13:20;18.17;;;3.33;;
26319;SDS011;14024;52.226;5.200;2022-12-29T14:15:51;20.52;;;3.33;;
26319;SDS011;14024;52.226;5.200;2022-12-29T14:18:18;22.02;;;4.70;;
26319;SDS011;14024;52.226;5.200;2022-12-29T14:23:40;14.15;;;3.28;;
26319;SDS011;14024;52.226;5.200;2022-12-29T14:28:36;10.43;;;3.00;;
26319;SDS011;14024;52.226;5.200;2022-12-29T14:33:41;15.75;;;2.92;;
26319;SDS011;14024;52.226;5.200;2022-12-29T14:42:00;8.05;;;2.22;;
26319;SDS011;14024;52.226;5.200;2022-12-29T14:44:27;9.43;;;1.80;;
26319;SDS011;14024;52.226;5.200;2022-12-29T14:49:19;9.82;;;1.63;;
26319;SDS011;14024;52.226;5.200;2022-12-29T14:51:46;4.70;;;1.63;;
26319;SDS011;14024;52.226;5.200;2022-12-29T14:56:58;6.45;;;1.80;;
26319;SDS011;14024;52.226;5.200;2022-12-29T14:59:25;6.63;;;2.22;;
26319;SDS011;14024;52.226;5.200;2022-12-29T15:01:54;7.13;;;2.08;;
26319;SDS011;14024;52.226;5.200;2022-12-29T15:04:30;7.30;;;2.08;;
26319;SDS011;14024;52.226;5.200;2022-12-29T15:06:56;12.57;;;2.50;;
26319;SDS011;14024;52.226;5.200;2022-12-29T15:09:24;8.13;;;2.22;;
26319;SDS011;14024;52.226;5.200;2022-12-29T15:11:57;10.43;;;2.58;;
26319;SDS011;14024;52.226;5.200;2022-12-29T15:14:29;14.38;;;2.83;;
26319;SDS011;14024;52.226;5.200;2022-12-29T15:16:55;9.80;;;3.17;;
26319;SDS011;14024;52.226;5.200;2022-12-29T15:19:22;11.02;;;3.40;;
26319;SDS011;14024;52.226;5.200;2022-12-29T15:21:49;12.38;;;4.32;;
26319;SDS011;14024;52.226;5.200;2022-12-29T15:24:15;12.45;;;3.05;;
26319;SDS011;14024;52.226;5.200;2022-12-29T15:26:49;7.78;;;3.00;;
26319;SDS011;14024;52.226;5.200;2022-12-29T15:29:29;14.57;;;3.65;;
26319;SDS011;14024;52.226;5.200;2022-12-29T15:31:57;11.40;;;3.53;;
26319;SDS011;14024;52.226;5.200;2022-12-29T15:34:24;19.85;;;3.95;;
26319;SDS011;14024;52.226;5.200;2022-12-29T15:36:50;13.23;;;4.88;;
26319;SDS011;14024;52.226;5.200;2022-12-29T15:39:17;15.02;;;3.65;;
26319;SDS011;14024;52.226;5.200;2022-12-29T15:41:49;14.30;;;3.08;;
26319;SDS011;14024;52.226;5.200;2022-12-29T15:47:11;14.38;;;3.58;;
26319;SDS011;14024;52.226;5.200;2022-12-29T15:49:38;15.48;;;3.72;;
26319;SDS011;14024;52.226;5.200;2022-12-29T15:52:08;21.75;;;4.80;;
26319;SDS011;14024;52.226;5.200;2022-12-29T15:54:34;11.82;;;3.75;;
26319;SDS011;14024;52.226;5.200;2022-12-29T15:57:01;10.95;;;4.05;;
26319;SDS011;14024;52.226;5.200;2022-12-29T15:59:32;13.88;;;4.47;;
26319;SDS011;14024;52.226;5.200;2022-12-29T16:01:58;16.05;;;3.85;;
26319;SDS011;14024;52.226;5.200;2022-12-29T16:04:25;17.67;;;3.63;;
26319;SDS011;14024;52.226;5.200;2022-12-29T16:06:56;17.08;;;3.75;;
26319;SDS011;14024;52.226;5.200;2022-12-29T16:09:36;19.08;;;3.72;;
26319;SDS011;14024;52.226;5.200;2022-12-29T16:17:00;14.48;;;3.30;;
26319;SDS011;14024;52.226;5.200;2022-12-29T16:21:53;18.02;;;5.90;;
26319;SDS011;14024;52.226;5.200;2022-12-29T16:24:20;12.85;;;3.78;;
26319;SDS011;14024;52.226;5.200;2022-12-29T16:26:47;18.27;;;4.22;;
26319;SDS011;14024;52.226;5.200;2022-12-29T16:29:13;15.15;;;4.00;;
26319;SDS011;14024;52.226;5.200;2022-12-29T16:31:59;16.42;;;4.00;;
26319;SDS011;14024;52.226;5.200;2022-12-29T16:34:42;13.70;;;4.43;;
26319;SDS011;14024;52.226;5.200;2022-12-29T16:39:53;12.13;;;3.33;;
26319;SDS011;14024;52.226;5.200;2022-12-29T16:50:30;20.20;;;3.58;;
26319;SDS011;14024;52.226;5.200;2022-12-29T16:52:56;19.88;;;3.85;;
26319;SDS011;14024;52.226;5.200;2022-12-29T16:55:22;11.93;;;2.67;;
26319;SDS011;14024;52.226;5.200;2022-12-29T16:57:49;13.98;;;2.72;;
26319;SDS011;14024;52.226;5.200;2022-12-29T17:00:20;12.23;;;2.90;;
26319;SDS011;14024;52.226;5.200;2022-12-29T17:02:47;13.38;;;3.10;;
26319;SDS011;14024;52.226;5.200;2022-12-29T17:05:14;7.35;;;2.95;;
26319;SDS011;14024;52.226;5.200;2022-12-29T17:07:42;14.93;;;2.97;;
26319;SDS011;14024;52.226;5.200;2022-12-29T17:10:08;11.43;;;3.47;;
26319;SDS011;14024;52.226;5.200;2022-12-29T17:12:34;15.52;;;2.85;;